sensor_id;sensor_type;location;lat;lon;timestamp;P1;durP1;ratioP1;P2;durP2;ratioP2
42200;SDS011;27869;51.442;7.540;2022-09-21T00:01:23;9.13;;;2.40;;
42200;SDS011;27869;51.442;7.540;2022-09-21T00:03:52;11.52;;;2.92;;
42200;SDS011;27869;51.442;7.540;2022-09-21T00:06:21;14.45;;;2.58;;
42200;SDS011;27869;51.442;7.540;2022-09-21T00:08:49;12.50;;;2.65;;
42200;SDS011;27869;51.442;7.540;2022-09-21T00:11:17;10.98;;;2.50;;
42200;SDS011;27869;51.442;7.540;2022-09-21T00:13:46;10.07;;;2.50;;
42200;SDS011;27869;51.442;7.540;2022-09-21T00:16:13;10.88;;;2.35;;
42200;SDS011;27869;51.442;7.540;2022-09-21T00:18:41;14.00;;;2.67;;
42200;SDS011;27869;51.442;7.540;2022-09-21T00:21:09;13.93;;;2.50;;
42200;SDS011;27869;51.442;7.540;2022-09-21T00:23:39;10.57;;;2.58;;
42200;SDS011;27869;51.442;7.540;2022-09-21T00:26:08;11.10;;;2.55;;
42200;SDS011;27869;51.442;7.540;2022-09-21T00:28:36;11.07;;;2.50;;
42200;SDS011;27869;51.442;7.540;2022-09-21T00:31:06;11.48;;;2.42;;
42200;SDS011;27869;51.442;7.540;2022-09-21T00:33:36;10.75;;;2.30;;
42200;SDS011;27869;51.442;7.540;2022-09-21T00:36:04;11.30;;;2.30;;
42200;SDS011;27869;51.442;7.540;2022-09-21T00:38:32;8.00;;;2.20;;
42200;SDS011;27869;51.442;7.540;2022-09-21T00:41:01;9.63;;;2.50;;
42200;SDS011;27869;51.442;7.540;2022-09-21T00:43:31;11.48;;;2.70;;
42200;SDS011;27869;51.442;7.540;2022-09-21T00:46:00;10.75;;;2.40;;
42200;SDS011;27869;51.442;7.540;2022-09-21T00:48:30;9.35;;;2.35;;
42200;SDS011;27869;51.442;7.540;2022-09-21T00:51:00;10.43;;;2.53;;
42200;SDS011;27869;51.442;7.540;2022-09-21T00:53:31;10.18;;;2.30;;
42200;SDS011;27869;51.442;7.540;2022-09-21T00:55:59;10.50;;;2.22;;
42200;SDS011;27869;51.442;7.540;2022-09-21T00:58:28;9.77;;;2.15;;
42200;SDS011;27869;51.442;7.540;2022-09-21T01:00:59;11.30;;;2.30;;
42200;SDS011;27869;51.442;7.540;2022-09-21T01:03:26;12.52;;;2.50;;
42200;SDS011;27869;51.442;7.540;2022-09-21T01:05:55;11.48;;;2.70;;
42200;SDS011;27869;51.442;7.540;2022-09-21T01:08:22;9.35;;;2.67;;
42200;SDS011;27869;51.442;7.540;2022-09-21T01:10:57;11.13;;;2.58;;
42200;SDS011;27869;51.442;7.540;2022-09-21T01:13:50;8.02;;;2.15;;
42200;SDS011;27869;51.442;7.540;2022-09-21T01:16:31;12.98;;;2.60;;
42200;SDS011;27869;51.442;7.540;2022-09-21T01:19:05;8.60;;;2.42;;
42200;SDS011;27869;51.442;7.540;2022-09-21T01:21:47;12.80;;;2.63;;
42200;SDS011;27869;51.442;7.540;2022-09-21T01:24:35;13.35;;;2.60;;
42200;SDS011;27869;51.442;7.540;2022-09-21T01:27:29;9.18;;;2.45;;
42200;SDS011;27869;51.442;7.540;2022-09-21T01:30:07;8.00;;;2.33;;
42200;SDS011;27869;51.442;7.540;2022-09-21T01:32:39;10.18;;;2.58;;
42200;SDS011;27869;51.442;7.540;2022-09-21T01:35:09;10.32;;;2.45;;
42200;SDS011;27869;51.442;7.540;2022-09-21T01:37:41;9.60;;;2.33;;
42200;SDS011;27869;51.442;7.540;2022-09-21T01:40:13;9.80;;;2.65;;
42200;SDS011;27869;51.442;7.540;2022-09-21T01:42:44;10.50;;;2.53;;
42200;SDS011;27869;51.442;7.540;2022-09-21T01:45:17;11.75;;;2.20;;
42200;SDS011;27869;51.442;7.540;2022-09-21T01:47:48;7.93;;;2.33;;
42200;SDS011;27869;51.442;7.540;2022-09-21T01:50:17;9.40;;;2.67;;
42200;SDS011;27869;51.442;7.540;2022-09-21T01:52:46;9.10;;;2.22;;
42200;SDS011;27869;51.442;7.540;2022-09-21T01:55:21;9.93;;;2.50;;
42200;SDS011;27869;51.442;7.540;2022-09-21T01:57:53;12.55;;;2.97;;
42200;SDS011;27869;51.442;7.540;2022-09-21T02:00:25;10.90;;;2.53;;
42200;SDS011;27869;51.442;7.540;2022-09-21T02:02:54;9.07;;;2.55;;
42200;SDS011;27869;51.442;7.540;2022-09-21T02:05:25;9.23;;;2.88;;
42200;SDS011;27869;51.442;7.540;2022-09-21T02:07:55;10.40;;;2.58;;
42200;SDS011;27869;51.442;7.540;2022-09-21T02:10:25;8.93;;;2.50;;
42200;SDS011;27869;51.442;7.540;2022-09-21T02:12:56;10.48;;;2.72;;
42200;SDS011;27869;51.442;7.540;2022-09-21T02:15:31;9.30;;;2.30;;
42200;SDS011;27869;51.442;7.540;2022-09-21T02:18:06;10.52;;;2.70;;
42200;SDS011;27869;51.442;7.540;2022-09-21T02:20:40;9.27;;;2.40;;
42200;SDS011;27869;51.442;7.540;2022-09-21T02:23:13;9.30;;;2.30;;
42200;SDS011;27869;51.442;7.540;2022-09-21T02:25:48;7.85;;;2.42;;
42200;SDS011;27869;51.442;7.540;2022-09-21T02:28:25;11.15;;;2.47;;
42200;SDS011;27869;51.442;7.540;2022-09-21T02:31:02;10.13;;;2.28;;
42200;SDS011;27869;51.442;7.540;2022-09-21T02:33:40;10.38;;;2.35;;
42200;SDS011;27869;51.442;7.540;2022-09-21T02:36:14;8.32;;;2.50;;
42200;SDS011;27869;51.442;7.540;2022-09-21T02:38:48;9.68;;;2.28;;
42200;SDS011;27869;51.442;7.540;2022-09-21T02:41:22;10.48;;;2.22;;
42200;SDS011;27869;51.442;7.540;2022-09-21T02:43:56;13.25;;;2.50;;
42200;SDS011;27869;51.442;7.540;2022-09-21T02:46:29;12.23;;;2.17;;
42200;SDS011;27869;51.442;7.540;2022-09-21T02:49:02;11.00;;;2.25;;
42200;SDS011;27869;51.442;7.540;2022-09-21T02:51:35;9.73;;;2.38;;
42200;SDS011;27869;51.442;7.540;2022-09-21T02:54:06;7.68;;;1.90;;
42200;SDS011;27869;51.442;7.540;2022-09-21T02:56:36;10.02;;;2.78;;
42200;SDS011;27869;51.442;7.540;2022-09-21T02:59:04;11.68;;;2.40;;
42200;SDS011;27869;51.442;7.540;2022-09-21T03:01:33;19.92;;;2.67;;
42200;SDS011;27869;51.442;7.540;2022-09-21T03:04:01;12.77;;;2.75;;
42200;SDS011;27869;51.442;7.540;2022-09-21T03:06:28;20.65;;;2.80;;
42200;SDS011;27869;51.442;7.540;2022-09-21T03:08:55;16.15;;;3.08;;
42200;SDS011;27869;51.442;7.540;2022-09-21T03:11:23;11.45;;;2.47;;
42200;SDS011;27869;51.442;7.540;2022-09-21T03:13:50;13.35;;;2.53;;
42200;SDS011;27869;51.442;7.540;2022-09-21T03:16:17;18.27;;;2.78;;
42200;SDS011;27869;51.442;7.540;2022-09-21T03:18:45;14.18;;;2.58;;
42200;SDS011;27869;51.442;7.540;2022-09-21T03:21:12;10.82;;;2.85;;
42200;SDS011;27869;51.442;7.540;2022-09-21T03:23:39;29.70;;;2.60;;
42200;SDS011;27869;51.442;7.540;2022-09-21T03:26:06;9.32;;;2.53;;
42200;SDS011;27869;51.442;7.540;2022-09-21T03:28:33;9.73;;;2.40;;
42200;SDS011;27869;51.442;7.540;2022-09-21T03:31:00;9.07;;;2.42;;
42200;SDS011;27869;51.442;7.540;2022-09-21T03:33:27;8.80;;;2.45;;
42200;SDS011;27869;51.442;7.540;2022-09-21T03:35:56;7.82;;;2.13;;
42200;SDS011;27869;51.442;7.540;2022-09-21T03:38:22;8.77;;;2.33;;
42200;SDS011;27869;51.442;7.540;2022-09-21T03:40:50;11.38;;;2.28;;
42200;SDS011;27869;51.442;7.540;2022-09-21T03:43:18;26.75;;;2.42;;
42200;SDS011;27869;51.442;7.540;2022-09-21T03:45:45;23.60;;;2.67;;
42200;SDS011;27869;51.442;7.540;2022-09-21T03:48:13;17.40;;;2.50;;
42200;SDS011;27869;51.442;7.540;2022-09-21T03:50:40;12.13;;;2.50;;
42200;SDS011;27869;51.442;7.540;2022-09-21T03:53:09;29.15;;;2.42;;
42200;SDS011;27869;51.442;7.540;2022-09-21T03:55:36;12.60;;;2.20;;
42200;SDS011;27869;51.442;7.540;2022-09-21T03:58:04;16.15;;;2.45;;
42200;SDS011;27869;51.442;7.540;2022-09-21T04:00:31;14.65;;;2.15;;
42200;SDS011;27869;51.442;7.540;2022-09-21T04:02:58;18.15;;;2.08;;
42200;SDS011;27869;51.442;7.540;2022-09-21T04:05:26;7.60;;;2.25;;
42200;SDS011;27869;51.442;7.540;2022-09-21T04:07:53;9.57;;;1.98;;
42200;SDS011;27869;51.442;7.540;2022-09-21T04:10:23;15.05;;;2.30;;
42200;SDS011;27869;51.442;7.540;2022-09-21T04:12:57;7.97;;;2.15;;
42200;SDS011;27869;51.442;7.540;2022-09-21T04:15:25;26.50;;;2.70;;
42200;SDS011;27869;51.442;7.540;2022-09-21T04:17:52;6.60;;;2.00;;
42200;SDS011;27869;51.442;7.540;2022-09-21T04:20:19;12.30;;;2.47;;
42200;SDS011;27869;51.442;7.540;2022-09-21T04:22:46;10.73;;;2.35;;
42200;SDS011;27869;51.442;7.540;2022-09-21T04:25:15;11.65;;;2.40;;
42200;SDS011;27869;51.442;7.540;2022-09-21T04:27:43;12.98;;;2.72;;
42200;SDS011;27869;51.442;7.540;2022-09-21T04:30:11;16.27;;;2.55;;
42200;SDS011;27869;51.442;7.540;2022-09-21T04:32:38;16.05;;;2.70;;
42200;SDS011;27869;51.442;7.540;2022-09-21T04:35:05;12.18;;;2.78;;
42200;SDS011;27869;51.442;7.540;2022-09-21T04:37:33;14.27;;;2.50;;
42200;SDS011;27869;51.442;7.540;2022-09-21T04:40:00;14.90;;;3.13;;
42200;SDS011;27869;51.442;7.540;2022-09-21T04:42:28;15.95;;;2.92;;
42200;SDS011;27869;51.442;7.540;2022-09-21T04:44:56;10.82;;;3.00;;
42200;SDS011;27869;51.442;7.540;2022-09-21T04:47:23;13.52;;;3.05;;
42200;SDS011;27869;51.442;7.540;2022-09-21T04:49:50;11.98;;;2.80;;
42200;SDS011;27869;51.442;7.540;2022-09-21T04:52:17;16.67;;;3.60;;
42200;SDS011;27869;51.442;7.540;2022-09-21T04:54:44;13.98;;;3.17;;
42200;SDS011;27869;51.442;7.540;2022-09-21T04:57:11;21.42;;;3.80;;
42200;SDS011;27869;51.442;7.540;2022-09-21T04:59:38;16.90;;;3.83;;
42200;SDS011;27869;51.442;7.540;2022-09-21T05:02:07;27.17;;;3.55;;
42200;SDS011;27869;51.442;7.540;2022-09-21T05:04:34;23.92;;;3.75;;
42200;SDS011;27869;51.442;7.540;2022-09-21T05:07:01;32.90;;;3.83;;
42200;SDS011;27869;51.442;7.540;2022-09-21T05:09:27;21.90;;;3.58;;
42200;SDS011;27869;51.442;7.540;2022-09-21T05:12:12;29.60;;;3.35;;
42200;SDS011;27869;51.442;7.540;2022-09-21T05:14:39;24.48;;;3.70;;
42200;SDS011;27869;51.442;7.540;2022-09-21T05:17:09;19.83;;;3.42;;
42200;SDS011;27869;51.442;7.540;2022-09-21T05:19:36;27.48;;;3.47;;
42200;SDS011;27869;51.442;7.540;2022-09-21T05:22:03;13.15;;;2.90;;
42200;SDS011;27869;51.442;7.540;2022-09-21T05:24:30;12.60;;;3.60;;
42200;SDS011;27869;51.442;7.540;2022-09-21T05:26:57;12.65;;;3.70;;
42200;SDS011;27869;51.442;7.540;2022-09-21T05:29:24;11.75;;;2.97;;
42200;SDS011;27869;51.442;7.540;2022-09-21T05:31:52;8.80;;;2.42;;
42200;SDS011;27869;51.442;7.540;2022-09-21T05:34:31;8.98;;;2.67;;
42200;SDS011;27869;51.442;7.540;2022-09-21T05:37:09;11.02;;;2.70;;
42200;SDS011;27869;51.442;7.540;2022-09-21T05:39:42;14.13;;;3.00;;
42200;SDS011;27869;51.442;7.540;2022-09-21T05:42:10;13.27;;;2.80;;
42200;SDS011;27869;51.442;7.540;2022-09-21T05:44:37;7.80;;;2.50;;
42200;SDS011;27869;51.442;7.540;2022-09-21T05:47:07;10.02;;;2.50;;
42200;SDS011;27869;51.442;7.540;2022-09-21T05:49:48;15.40;;;3.20;;
42200;SDS011;27869;51.442;7.540;2022-09-21T05:52:24;13.88;;;2.92;;
42200;SDS011;27869;51.442;7.540;2022-09-21T05:55:00;12.52;;;3.03;;
42200;SDS011;27869;51.442;7.540;2022-09-21T05:57:35;12.73;;;2.80;;
42200;SDS011;27869;51.442;7.540;2022-09-21T06:00:10;9.07;;;2.40;;
42200;SDS011;27869;51.442;7.540;2022-09-21T06:02:47;12.02;;;2.80;;
42200;SDS011;27869;51.442;7.540;2022-09-21T06:07:51;10.50;;;2.55;;
42200;SDS011;27869;51.442;7.540;2022-09-21T06:10:17;8.88;;;2.40;;
42200;SDS011;27869;51.442;7.540;2022-09-21T06:12:44;13.10;;;2.47;;
42200;SDS011;27869;51.442;7.540;2022-09-21T06:15:12;23.52;;;2.85;;
42200;SDS011;27869;51.442;7.540;2022-09-21T06:17:39;15.73;;;2.75;;
42200;SDS011;27869;51.442;7.540;2022-09-21T06:20:07;10.68;;;2.95;;
42200;SDS011;27869;51.442;7.540;2022-09-21T06:22:36;13.85;;;2.83;;
42200;SDS011;27869;51.442;7.540;2022-09-21T06:25:03;21.52;;;2.60;;
42200;SDS011;27869;51.442;7.540;2022-09-21T06:27:30;10.90;;;2.33;;
42200;SDS011;27869;51.442;7.540;2022-09-21T06:29:57;8.63;;;2.42;;
42200;SDS011;27869;51.442;7.540;2022-09-21T06:32:24;10.20;;;2.67;;
42200;SDS011;27869;51.442;7.540;2022-09-21T06:34:51;19.65;;;2.42;;
42200;SDS011;27869;51.442;7.540;2022-09-21T06:37:18;16.55;;;2.75;;
42200;SDS011;27869;51.442;7.540;2022-09-21T06:39:46;9.15;;;2.70;;
42200;SDS011;27869;51.442;7.540;2022-09-21T06:42:13;16.02;;;2.83;;
42200;SDS011;27869;51.442;7.540;2022-09-21T06:44:40;9.98;;;2.67;;
42200;SDS011;27869;51.442;7.540;2022-09-21T06:47:07;8.25;;;2.30;;
42200;SDS011;27869;51.442;7.540;2022-09-21T06:49:33;10.68;;;2.78;;
42200;SDS011;27869;51.442;7.540;2022-09-21T06:52:00;11.52;;;2.25;;
42200;SDS011;27869;51.442;7.540;2022-09-21T06:54:28;23.60;;;2.58;;
42200;SDS011;27869;51.442;7.540;2022-09-21T06:56:56;9.93;;;3.10;;
42200;SDS011;27869;51.442;7.540;2022-09-21T06:59:23;21.60;;;2.88;;
42200;SDS011;27869;51.442;7.540;2022-09-21T07:01:50;12.00;;;2.67;;
42200;SDS011;27869;51.442;7.540;2022-09-21T07:04:21;11.68;;;2.92;;
42200;SDS011;27869;51.442;7.540;2022-09-21T07:06:48;11.20;;;2.70;;
42200;SDS011;27869;51.442;7.540;2022-09-21T07:09:15;151.23;;;5.03;;
42200;SDS011;27869;51.442;7.540;2022-09-21T07:11:43;17.02;;;2.55;;
42200;SDS011;27869;51.442;7.540;2022-09-21T07:14:12;9.23;;;2.80;;
42200;SDS011;27869;51.442;7.540;2022-09-21T07:16:39;18.73;;;2.80;;
42200;SDS011;27869;51.442;7.540;2022-09-21T07:19:07;12.25;;;3.00;;
42200;SDS011;27869;51.442;7.540;2022-09-21T07:21:34;10.40;;;3.25;;
42200;SDS011;27869;51.442;7.540;2022-09-21T07:24:01;15.45;;;3.78;;
42200;SDS011;27869;51.442;7.540;2022-09-21T07:26:28;25.20;;;3.83;;
42200;SDS011;27869;51.442;7.540;2022-09-21T07:28:55;12.30;;;4.13;;
42200;SDS011;27869;51.442;7.540;2022-09-21T07:31:23;17.25;;;3.40;;
42200;SDS011;27869;51.442;7.540;2022-09-21T07:33:54;13.27;;;3.60;;
42200;SDS011;27869;51.442;7.540;2022-09-21T07:36:23;11.15;;;3.30;;
42200;SDS011;27869;51.442;7.540;2022-09-21T07:38:50;24.65;;;3.97;;
42200;SDS011;27869;51.442;7.540;2022-09-21T07:41:18;12.40;;;3.50;;
42200;SDS011;27869;51.442;7.540;2022-09-21T07:43:46;13.73;;;3.60;;
42200;SDS011;27869;51.442;7.540;2022-09-21T07:46:13;10.00;;;3.20;;
42200;SDS011;27869;51.442;7.540;2022-09-21T07:48:42;12.73;;;3.97;;
42200;SDS011;27869;51.442;7.540;2022-09-21T07:51:09;10.00;;;3.28;;
42200;SDS011;27869;51.442;7.540;2022-09-21T07:53:37;10.40;;;3.53;;
42200;SDS011;27869;51.442;7.540;2022-09-21T07:56:06;10.80;;;3.17;;
42200;SDS011;27869;51.442;7.540;2022-09-21T07:58:34;12.90;;;3.70;;
42200;SDS011;27869;51.442;7.540;2022-09-21T08:01:19;10.40;;;3.60;;
42200;SDS011;27869;51.442;7.540;2022-09-21T08:03:48;10.20;;;3.67;;
42200;SDS011;27869;51.442;7.540;2022-09-21T08:06:15;11.57;;;3.95;;
42200;SDS011;27869;51.442;7.540;2022-09-21T08:08:43;11.73;;;3.80;;
42200;SDS011;27869;51.442;7.540;2022-09-21T08:11:12;12.15;;;4.03;;
42200;SDS011;27869;51.442;7.540;2022-09-21T08:13:39;11.73;;;3.70;;
42200;SDS011;27869;51.442;7.540;2022-09-21T08:16:06;12.55;;;3.55;;
42200;SDS011;27869;51.442;7.540;2022-09-21T08:18:35;11.30;;;3.70;;
42200;SDS011;27869;51.442;7.540;2022-09-21T08:21:04;11.35;;;3.25;;
42200;SDS011;27869;51.442;7.540;2022-09-21T08:25:59;11.32;;;3.55;;
42200;SDS011;27869;51.442;7.540;2022-09-21T08:28:26;13.07;;;3.47;;
42200;SDS011;27869;51.442;7.540;2022-09-21T08:30:57;10.73;;;3.28;;
42200;SDS011;27869;51.442;7.540;2022-09-21T08:33:24;10.98;;;3.20;;
42200;SDS011;27869;51.442;7.540;2022-09-21T08:35:52;10.52;;;3.10;;
42200;SDS011;27869;51.442;7.540;2022-09-21T08:38:21;11.95;;;2.95;;
42200;SDS011;27869;51.442;7.540;2022-09-21T08:40:48;10.65;;;2.80;;
42200;SDS011;27869;51.442;7.540;2022-09-21T08:43:17;11.43;;;2.92;;
42200;SDS011;27869;51.442;7.540;2022-09-21T08:45:48;9.43;;;2.85;;
42200;SDS011;27869;51.442;7.540;2022-09-21T08:48:17;10.15;;;3.15;;
42200;SDS011;27869;51.442;7.540;2022-09-21T08:50:47;10.95;;;3.13;;
42200;SDS011;27869;51.442;7.540;2022-09-21T08:53:17;12.32;;;3.00;;
42200;SDS011;27869;51.442;7.540;2022-09-21T08:55:48;10.82;;;2.70;;
42200;SDS011;27869;51.442;7.540;2022-09-21T08:58:19;9.90;;;2.70;;
42200;SDS011;27869;51.442;7.540;2022-09-21T09:00:48;9.50;;;2.28;;
42200;SDS011;27869;51.442;7.540;2022-09-21T09:03:33;13.90;;;2.55;;
42200;SDS011;27869;51.442;7.540;2022-09-21T09:06:11;13.57;;;2.70;;
42200;SDS011;27869;51.442;7.540;2022-09-21T09:08:51;10.55;;;1.90;;
42200;SDS011;27869;51.442;7.540;2022-09-21T09:11:36;9.63;;;2.00;;
42200;SDS011;27869;51.442;7.540;2022-09-21T09:14:21;7.07;;;1.73;;
42200;SDS011;27869;51.442;7.540;2022-09-21T09:17:05;9.85;;;1.45;;
42200;SDS011;27869;51.442;7.540;2022-09-21T09:19:46;8.55;;;1.40;;
42200;SDS011;27869;51.442;7.540;2022-09-21T09:22:17;8.35;;;1.73;;
42200;SDS011;27869;51.442;7.540;2022-09-21T09:24:49;8.48;;;1.90;;
42200;SDS011;27869;51.442;7.540;2022-09-21T09:27:18;10.10;;;1.52;;
42200;SDS011;27869;51.442;7.540;2022-09-21T09:29:52;6.95;;;1.52;;
42200;SDS011;27869;51.442;7.540;2022-09-21T09:32:28;8.45;;;1.63;;
42200;SDS011;27869;51.442;7.540;2022-09-21T09:35:02;10.90;;;2.05;;
42200;SDS011;27869;51.442;7.540;2022-09-21T09:37:38;12.77;;;2.45;;
42200;SDS011;27869;51.442;7.540;2022-09-21T09:40:10;13.02;;;2.22;;
42200;SDS011;27869;51.442;7.540;2022-09-21T09:42:42;11.93;;;2.30;;
42200;SDS011;27869;51.442;7.540;2022-09-21T09:48:18;11.77;;;2.15;;
42200;SDS011;27869;51.442;7.540;2022-09-21T09:50:54;8.73;;;1.88;;
42200;SDS011;27869;51.442;7.540;2022-09-21T09:53:24;9.77;;;1.83;;
42200;SDS011;27869;51.442;7.540;2022-09-21T09:55:52;7.88;;;1.60;;
42200;SDS011;27869;51.442;7.540;2022-09-21T09:58:23;8.80;;;1.13;;
42200;SDS011;27869;51.442;7.540;2022-09-21T10:00:56;9.30;;;1.48;;
42200;SDS011;27869;51.442;7.540;2022-09-21T10:03:23;6.35;;;1.20;;
42200;SDS011;27869;51.442;7.540;2022-09-21T10:05:53;5.13;;;0.95;;
42200;SDS011;27869;51.442;7.540;2022-09-21T10:08:37;7.03;;;1.00;;
42200;SDS011;27869;51.442;7.540;2022-09-21T10:11:07;7.60;;;1.38;;
42200;SDS011;27869;51.442;7.540;2022-09-21T10:13:36;5.13;;;0.77;;
42200;SDS011;27869;51.442;7.540;2022-09-21T10:16:05;7.18;;;1.17;;
42200;SDS011;27869;51.442;7.540;2022-09-21T10:18:38;9.52;;;1.10;;
42200;SDS011;27869;51.442;7.540;2022-09-21T10:21:15;9.05;;;1.13;;
42200;SDS011;27869;51.442;7.540;2022-09-21T10:23:45;6.45;;;1.00;;
42200;SDS011;27869;51.442;7.540;2022-09-21T10:26:13;6.38;;;1.17;;
42200;SDS011;27869;51.442;7.540;2022-09-21T10:31:22;3.90;;;0.63;;
42200;SDS011;27869;51.442;7.540;2022-09-21T10:33:51;4.68;;;0.55;;
42200;SDS011;27869;51.442;7.540;2022-09-21T10:36:24;7.35;;;0.70;;
42200;SDS011;27869;51.442;7.540;2022-09-21T10:39:09;4.35;;;0.63;;
42200;SDS011;27869;51.442;7.540;2022-09-21T10:41:49;4.03;;;0.77;;
42200;SDS011;27869;51.442;7.540;2022-09-21T10:44:21;3.88;;;0.60;;
42200;SDS011;27869;51.442;7.540;2022-09-21T10:46:51;9.18;;;0.90;;
42200;SDS011;27869;51.442;7.540;2022-09-21T10:49:20;8.93;;;1.00;;
42200;SDS011;27869;51.442;7.540;2022-09-21T10:51:49;4.50;;;0.75;;
42200;SDS011;27869;51.442;7.540;2022-09-21T10:54:20;4.65;;;0.80;;
42200;SDS011;27869;51.442;7.540;2022-09-21T10:56:50;5.00;;;0.90;;
42200;SDS011;27869;51.442;7.540;2022-09-21T10:59:21;4.75;;;0.80;;
42200;SDS011;27869;51.442;7.540;2022-09-21T11:01:51;5.22;;;0.95;;
42200;SDS011;27869;51.442;7.540;2022-09-21T11:04:22;6.97;;;0.63;;
42200;SDS011;27869;51.442;7.540;2022-09-21T11:06:57;5.95;;;0.93;;
42200;SDS011;27869;51.442;7.540;2022-09-21T11:09:31;4.57;;;0.73;;
42200;SDS011;27869;51.442;7.540;2022-09-21T11:12:06;4.28;;;0.63;;
42200;SDS011;27869;51.442;7.540;2022-09-21T11:14:44;6.18;;;0.73;;
42200;SDS011;27869;51.442;7.540;2022-09-21T11:17:19;5.15;;;0.90;;
42200;SDS011;27869;51.442;7.540;2022-09-21T11:19:53;7.18;;;1.00;;
42200;SDS011;27869;51.442;7.540;2022-09-21T11:22:27;6.47;;;1.20;;
42200;SDS011;27869;51.442;7.540;2022-09-21T11:25:02;4.10;;;0.70;;
42200;SDS011;27869;51.442;7.540;2022-09-21T11:27:43;3.70;;;0.80;;
42200;SDS011;27869;51.442;7.540;2022-09-21T11:30:15;6.65;;;1.23;;
42200;SDS011;27869;51.442;7.540;2022-09-21T11:32:48;7.63;;;0.98;;
42200;SDS011;27869;51.442;7.540;2022-09-21T11:35:38;6.60;;;0.93;;
42200;SDS011;27869;51.442;7.540;2022-09-21T11:38:17;3.50;;;0.70;;
42200;SDS011;27869;51.442;7.540;2022-09-21T11:40:55;6.20;;;0.80;;
42200;SDS011;27869;51.442;7.540;2022-09-21T11:43:47;6.60;;;1.13;;
42200;SDS011;27869;51.442;7.540;2022-09-21T11:46:30;5.88;;;1.00;;
42200;SDS011;27869;51.442;7.540;2022-09-21T11:49:05;5.22;;;0.93;;
42200;SDS011;27869;51.442;7.540;2022-09-21T11:52:00;8.07;;;0.93;;
42200;SDS011;27869;51.442;7.540;2022-09-21T11:57:23;7.55;;;1.30;;
42200;SDS011;27869;51.442;7.540;2022-09-21T12:00:07;6.05;;;0.95;;
42200;SDS011;27869;51.442;7.540;2022-09-21T12:05:18;10.38;;;1.52;;
42200;SDS011;27869;51.442;7.540;2022-09-21T12:07:57;9.98;;;1.00;;
42200;SDS011;27869;51.442;7.540;2022-09-21T12:10:38;6.78;;;0.82;;
42200;SDS011;27869;51.442;7.540;2022-09-21T12:13:12;5.95;;;1.05;;
42200;SDS011;27869;51.442;7.540;2022-09-21T12:15:50;6.72;;;0.88;;
42200;SDS011;27869;51.442;7.540;2022-09-21T12:18:29;6.95;;;1.00;;
42200;SDS011;27869;51.442;7.540;2022-09-21T12:21:06;5.97;;;1.02;;
42200;SDS011;27869;51.442;7.540;2022-09-21T12:23:40;7.40;;;0.95;;
42200;SDS011;27869;51.442;7.540;2022-09-21T12:26:09;5.80;;;0.75;;
42200;SDS011;27869;51.442;7.540;2022-09-21T12:28:40;8.52;;;1.10;;
42200;SDS011;27869;51.442;7.540;2022-09-21T12:31:11;6.40;;;1.20;;
42200;SDS011;27869;51.442;7.540;2022-09-21T12:33:46;6.80;;;1.15;;
42200;SDS011;27869;51.442;7.540;2022-09-21T12:36:17;8.43;;;1.20;;
42200;SDS011;27869;51.442;7.540;2022-09-21T12:38:51;10.80;;;1.20;;
42200;SDS011;27869;51.442;7.540;2022-09-21T12:41:26;8.38;;;1.02;;
42200;SDS011;27869;51.442;7.540;2022-09-21T12:44:00;8.10;;;1.25;;
42200;SDS011;27869;51.442;7.540;2022-09-21T12:46:32;7.70;;;1.15;;
42200;SDS011;27869;51.442;7.540;2022-09-21T12:49:09;7.15;;;0.82;;
42200;SDS011;27869;51.442;7.540;2022-09-21T12:51:40;5.40;;;0.88;;
42200;SDS011;27869;51.442;7.540;2022-09-21T12:54:12;4.97;;;1.02;;
42200;SDS011;27869;51.442;7.540;2022-09-21T12:56:47;3.30;;;0.80;;
42200;SDS011;27869;51.442;7.540;2022-09-21T12:59:22;4.35;;;0.85;;
42200;SDS011;27869;51.442;7.540;2022-09-21T13:01:57;5.65;;;0.90;;
42200;SDS011;27869;51.442;7.540;2022-09-21T13:04:42;4.45;;;0.90;;
42200;SDS011;27869;51.442;7.540;2022-09-21T13:10:30;5.95;;;0.82;;
42200;SDS011;27869;51.442;7.540;2022-09-21T13:13:04;2.95;;;0.80;;
42200;SDS011;27869;51.442;7.540;2022-09-21T13:15:39;7.38;;;0.90;;
42200;SDS011;27869;51.442;7.540;2022-09-21T13:18:15;4.65;;;0.90;;
42200;SDS011;27869;51.442;7.540;2022-09-21T13:20:46;5.68;;;0.80;;
42200;SDS011;27869;51.442;7.540;2022-09-21T13:23:17;4.60;;;1.10;;
42200;SDS011;27869;51.442;7.540;2022-09-21T13:25:49;7.70;;;0.85;;
42200;SDS011;27869;51.442;7.540;2022-09-21T13:28:38;5.95;;;0.75;;
42200;SDS011;27869;51.442;7.540;2022-09-21T13:31:28;6.22;;;0.70;;
42200;SDS011;27869;51.442;7.540;2022-09-21T13:34:05;7.07;;;1.02;;
42200;SDS011;27869;51.442;7.540;2022-09-21T13:36:46;6.55;;;0.90;;
42200;SDS011;27869;51.442;7.540;2022-09-21T13:39:49;6.75;;;0.98;;
42200;SDS011;27869;51.442;7.540;2022-09-21T13:42:42;6.10;;;0.93;;
42200;SDS011;27869;51.442;7.540;2022-09-21T13:48:17;4.65;;;0.80;;
42200;SDS011;27869;51.442;7.540;2022-09-21T13:50:49;4.78;;;1.10;;
42200;SDS011;27869;51.442;7.540;2022-09-21T13:53:18;4.13;;;0.65;;
42200;SDS011;27869;51.442;7.540;2022-09-21T13:55:49;4.25;;;0.70;;
42200;SDS011;27869;51.442;7.540;2022-09-21T13:58:19;4.88;;;0.77;;
42200;SDS011;27869;51.442;7.540;2022-09-21T14:00:50;4.90;;;0.73;;
42200;SDS011;27869;51.442;7.540;2022-09-21T14:03:20;4.13;;;0.80;;
42200;SDS011;27869;51.442;7.540;2022-09-21T14:05:50;3.35;;;0.82;;
42200;SDS011;27869;51.442;7.540;2022-09-21T14:08:21;5.20;;;0.73;;
42200;SDS011;27869;51.442;7.540;2022-09-21T14:10:52;7.38;;;0.90;;
42200;SDS011;27869;51.442;7.540;2022-09-21T14:13:28;6.90;;;1.10;;
42200;SDS011;27869;51.442;7.540;2022-09-21T14:19:57;4.32;;;0.70;;
42200;SDS011;27869;51.442;7.540;2022-09-21T14:25:24;5.35;;;0.80;;
42200;SDS011;27869;51.442;7.540;2022-09-21T14:27:57;4.18;;;0.80;;
42200;SDS011;27869;51.442;7.540;2022-09-21T14:30:28;12.10;;;1.70;;
42200;SDS011;27869;51.442;7.540;2022-09-21T14:33:09;8.32;;;1.10;;
42200;SDS011;27869;51.442;7.540;2022-09-21T14:35:53;8.07;;;0.90;;
42200;SDS011;27869;51.442;7.540;2022-09-21T14:38:22;6.82;;;1.00;;
42200;SDS011;27869;51.442;7.540;2022-09-21T14:40:53;4.43;;;0.77;;
42200;SDS011;27869;51.442;7.540;2022-09-21T14:43:24;6.22;;;0.98;;
42200;SDS011;27869;51.442;7.540;2022-09-21T14:46:05;5.45;;;0.90;;
42200;SDS011;27869;51.442;7.540;2022-09-21T14:48:44;3.35;;;0.63;;
42200;SDS011;27869;51.442;7.540;2022-09-21T14:51:20;6.43;;;0.80;;
42200;SDS011;27869;51.442;7.540;2022-09-21T14:53:59;4.00;;;0.57;;
42200;SDS011;27869;51.442;7.540;2022-09-21T14:56:41;4.60;;;0.98;;
42200;SDS011;27869;51.442;7.540;2022-09-21T14:59:21;6.40;;;0.88;;
42200;SDS011;27869;51.442;7.540;2022-09-21T15:02:00;3.03;;;0.65;;
42200;SDS011;27869;51.442;7.540;2022-09-21T15:04:39;7.05;;;0.70;;
42200;SDS011;27869;51.442;7.540;2022-09-21T15:07:24;5.32;;;0.90;;
42200;SDS011;27869;51.442;7.540;2022-09-21T15:10:20;7.47;;;1.00;;
42200;SDS011;27869;51.442;7.540;2022-09-21T15:13:20;6.22;;;0.65;;
42200;SDS011;27869;51.442;7.540;2022-09-21T15:16:16;5.10;;;0.88;;
42200;SDS011;27869;51.442;7.540;2022-09-21T15:18:50;3.55;;;0.90;;
42200;SDS011;27869;51.442;7.540;2022-09-21T15:21:29;7.72;;;1.17;;
42200;SDS011;27869;51.442;7.540;2022-09-21T15:23:57;5.22;;;1.05;;
42200;SDS011;27869;51.442;7.540;2022-09-21T15:26:35;5.45;;;0.77;;
42200;SDS011;27869;51.442;7.540;2022-09-21T15:29:05;4.43;;;0.75;;
42200;SDS011;27869;51.442;7.540;2022-09-21T15:31:33;4.88;;;0.70;;
42200;SDS011;27869;51.442;7.540;2022-09-21T15:34:02;4.13;;;0.68;;
42200;SDS011;27869;51.442;7.540;2022-09-21T15:36:31;5.05;;;0.70;;
42200;SDS011;27869;51.442;7.540;2022-09-21T15:39:02;6.03;;;0.80;;